Time;durP1;ratioP1;P1;durP2;ratioP2;P2;SDS_P1;SDS_P2;PMS_P1;PMS_P2;Temp;Humidity;BMP_temperature;BMP_pressure;BME280_temperature;BME280_humidity;BME280_pressure;Samples;Min_cycle;Max_cycle;Signal;HPM_P1;HPM_P2
2022/04/27 00:00:06;;;;;;;3.60;1.10;;;;;;;;;;2086693;28;20022;-67
2022/04/27 00:01:25;;;;;;;2.45;0.82;;;;;;;;;;2076803;28;20050;-68
2022/04/27 00:02:44;;;;;;;2.50;0.65;;;;;;;;;;2076669;28;20041;-67
2022/04/27 00:04:03;;;;;;;6.85;0.90;;;;;;;;;;2084653;28;20419;-69
2022/04/27 00:05:22;;;;;;;2.65;0.95;;;;;;;;;;2087738;28;20037;-67
2022/04/27 00:06:41;;;;;;;8.90;1.45;;;;;;;;;;2086471;28;20434;-67
2022/04/27 00:08:00;;;;;;;4.80;1.25;;;;;;;;;;2083715;28;20033;-67
2022/04/27 00:09:19;;;;;;;3.92;1.08;;;;;;;;;;2089081;28;20025;-68
2022/04/27 00:10:38;;;;;;;3.95;1.20;;;;;;;;;;2087233;28;20030;-67
2022/04/27 00:12:00;;;;;;;4.07;0.90;;;;;;;;;;2086012;28;20033;-67
2022/04/27 00:13:19;;;;;;;6.47;1.67;;;;;;;;;;2088347;28;20021;-67
2022/04/27 00:14:39;;;;;;;5.18;1.13;;;;;;;;;;2085711;28;20387;-67
2022/04/27 00:15:58;;;;;;;3.28;1.30;;;;;;;;;;2085832;28;20067;-68
2022/04/27 00:17:17;;;;;;;2.47;1.42;;;;;;;;;;2086154;28;20487;-67
2022/04/27 00:18:36;;;;;;;5.70;1.40;;;;;;;;;;2087536;28;20488;-67
2022/04/27 00:19:55;;;;;;;6.15;1.30;;;;;;;;;;2086327;28;20530;-67
2022/04/27 00:21:14;;;;;;;3.00;1.05;;;;;;;;;;2087659;28;20033;-69
2022/04/27 00:22:33;;;;;;;2.58;1.27;;;;;;;;;;2086363;28;20128;-67
2022/04/27 00:23:52;;;;;;;3.47;1.20;;;;;;;;;;2085212;28;20033;-67
2022/04/27 00:25:11;;;;;;;3.00;1.02;;;;;;;;;;2077590;28;20029;-67
2022/04/27 00:26:29;;;;;;;4.05;1.17;;;;;;;;;;2083023;28;20034;-70
2022/04/27 00:27:48;;;;;;;2.05;1.00;;;;;;;;;;2085758;28;20033;-68
2022/04/27 00:29:07;;;;;;;2.40;1.38;;;;;;;;;;2086458;28;20457;-68
2022/04/27 00:30:26;;;;;;;1.40;1.30;;;;;;;;;;2086497;28;20026;-68
2022/04/27 00:31:45;;;;;;;4.97;0.95;;;;;;;;;;2086927;28;20499;-68
2022/04/27 00:33:05;;;;;;;1.92;1.10;;;;;;;;;;2086765;28;20029;-66
2022/04/27 00:34:23;;;;;;;2.33;1.10;;;;;;;;;;2084686;28;20056;-68
2022/04/27 00:35:42;;;;;;;4.47;0.90;;;;;;;;;;2087338;28;20092;-68
2022/04/27 00:37:01;;;;;;;4.80;1.02;;;;;;;;;;2084498;28;20426;-68
2022/04/27 00:38:20;;;;;;;1.10;0.93;;;;;;;;;;2085231;28;20065;-67
2022/04/27 00:39:39;;;;;;;4.18;1.20;;;;;;;;;;2086202;28;20037;-67
2022/04/27 00:40:58;;;;;;;3.63;1.00;;;;;;;;;;2089381;28;20025;-66
2022/04/27 00:42:24;;;;;;;2.28;1.30;;;;;;;;;;2087753;28;20072;-66
2022/04/27 00:43:43;;;;;;;3.13;1.10;;;;;;;;;;2087485;28;20399;-66
2022/04/27 00:45:03;;;;;;;2.47;1.20;;;;;;;;;;2085804;28;20056;-67
2022/04/27 00:46:22;;;;;;;2.20;1.40;;;;;;;;;;2083614;28;20034;-67
2022/04/27 00:47:41;;;;;;;3.53;1.13;;;;;;;;;;2085057;28;20033;-67
2022/04/27 00:49:00;;;;;;;2.22;1.00;;;;;;;;;;2085736;28;20073;-68
2022/04/27 00:50:19;;;;;;;3.95;1.10;;;;;;;;;;2079995;28;20045;-68
2022/04/27 00:51:38;;;;;;;3.00;1.20;;;;;;;;;;2084873;28;20120;-66
2022/04/27 00:52:58;;;;;;;3.05;1.20;;;;;;;;;;2087384;28;20490;-66
2022/04/27 00:54:18;;;;;;;5.10;1.30;;;;;;;;;;2086363;28;20108;-66
2022/04/27 00:55:37;;;;;;;1.92;1.02;;;;;;;;;;2086348;28;20029;-67
2022/04/27 00:56:56;;;;;;;5.32;1.20;;;;;;;;;;2086010;28;20080;-66
2022/04/27 00:58:15;;;;;;;2.63;1.63;;;;;;;;;;2087110;28;20033;-66
2022/04/27 00:59:34;;;;;;;1.52;1.10;;;;;;;;;;2086193;28;20115;-68
2022/04/27 01:00:54;;;;;;;4.15;1.50;;;;;;;;;;2087237;28;20037;-68
2022/04/27 01:02:13;;;;;;;2.35;1.30;;;;;;;;;;2084328;28;20594;-66
2022/04/27 01:03:35;;;;;;;2.95;1.23;;;;;;;;;;2086312;28;20025;-66
2022/04/27 01:04:54;;;;;;;3.90;1.15;;;;;;;;;;2083930;28;20517;-66
2022/04/27 01:06:13;;;;;;;4.88;1.30;;;;;;;;;;2076325;28;20034;-67
2022/04/27 01:07:32;;;;;;;2.25;1.20;;;;;;;;;;2081176;28;20037;-67
2022/04/27 01:08:51;;;;;;;1.70;1.27;;;;;;;;;;2085329;28;20029;-66
2022/04/27 01:10:11;;;;;;;4.35;1.33;;;;;;;;;;2084339;28;20488;-67
2022/04/27 01:11:32;;;;;;;3.10;1.30;;;;;;;;;;2077730;28;20038;-66
2022/04/27 01:12:51;;;;;;;2.70;1.20;;;;;;;;;;2078623;28;20026;-66
2022/04/27 01:14:10;;;;;;;3.75;1.38;;;;;;;;;;2074994;28;20129;-66
2022/04/27 01:15:31;;;;;;;3.78;1.40;;;;;;;;;;2084626;28;20021;-68
2022/04/27 01:16:51;;;;;;;5.40;1.38;;;;;;;;;;2078549;28;20026;-67
2022/04/27 01:18:10;;;;;;;3.90;1.40;;;;;;;;;;2075051;28;20484;-68
2022/04/27 01:19:29;;;;;;;2.30;1.40;;;;;;;;;;2081245;28;20037;-68
2022/04/27 01:20:50;;;;;;;2.05;1.15;;;;;;;;;;2086184;28;20029;-67
2022/04/27 01:22:09;;;;;;;4.03;1.27;;;;;;;;;;2085539;28;20037;-67
2022/04/27 01:23:28;;;;;;;3.22;1.13;;;;;;;;;;2085632;28;20049;-66
2022/04/27 01:24:47;;;;;;;2.80;1.20;;;;;;;;;;2084401;28;20503;-67
2022/04/27 01:26:07;;;;;;;2.63;1.55;;;;;;;;;;2085190;28;20030;-66
2022/04/27 01:27:26;;;;;;;3.13;1.40;;;;;;;;;;2085781;28;20036;-66
2022/04/27 01:28:45;;;;;;;5.38;1.45;;;;;;;;;;2085495;28;20029;-66
2022/04/27 01:30:04;;;;;;;4.20;1.30;;;;;;;;;;2085399;28;20042;-66
2022/04/27 01:31:23;;;;;;;1.75;1.35;;;;;;;;;;2087466;28;20045;-66
2022/04/27 01:32:42;;;;;;;5.45;1.70;;;;;;;;;;2085088;28;20033;-66
2022/04/27 01:34:01;;;;;;;1.80;1.20;;;;;;;;;;2085654;28;20029;-66
2022/04/27 01:35:20;;;;;;;7.40;1.63;;;;;;;;;;2087011;28;20407;-66
2022/04/27 01:36:39;;;;;;;3.25;1.38;;;;;;;;;;2086764;28;20022;-66
2022/04/27 01:38:02;;;;;;;3.80;1.48;;;;;;;;;;2086916;28;20021;-66
2022/04/27 01:39:23;;;;;;;1.73;1.25;;;;;;;;;;2089571;28;20060;-67
2022/04/27 01:40:42;;;;;;;4.13;1.20;;;;;;;;;;2087039;28;20033;-66
2022/04/27 01:42:01;;;;;;;6.40;1.35;;;;;;;;;;2079749;28;20026;-66
2022/04/27 01:43:24;;;;;;;2.80;1.38;;;;;;;;;;2081622;28;20029;-66
2022/04/27 01:44:43;;;;;;;3.55;1.13;;;;;;;;;;2078416;28;20029;-67
2022/04/27 01:46:03;;;;;;;1.98;1.30;;;;;;;;;;2082752;28;20484;-68
2022/04/27 01:47:21;;;;;;;2.28;1.27;;;;;;;;;;2084822;28;20496;-66
2022/04/27 01:48:40;;;;;;;3.05;1.70;;;;;;;;;;2086936;28;20504;-67
2022/04/27 01:49:59;;;;;;;2.80;1.40;;;;;;;;;;2086936;28;20037;-67
2022/04/27 01:51:18;;;;;;;1.95;1.40;;;;;;;;;;2086077;28;20041;-66
2022/04/27 01:54:15;;;;;;;4.32;1.40;;;;;;;;;;2082935;28;20030;-66
2022/04/27 01:55:34;;;;;;;4.10;1.10;;;;;;;;;;2076362;28;20034;-67
2022/04/27 01:56:52;;;;;;;6.00;1.30;;;;;;;;;;2082808;28;20097;-67
2022/04/27 01:58:11;;;;;;;6.85;1.30;;;;;;;;;;2084580;28;20037;-66
2022/04/27 01:59:30;;;;;;;4.93;1.40;;;;;;;;;;2085672;28;20026;-68
2022/04/27 02:00:49;;;;;;;8.60;1.60;;;;;;;;;;2086458;28;20025;-66
2022/04/27 02:02:09;;;;;;;6.10;1.20;;;;;;;;;;2084411;28;20033;-67
2022/04/27 02:03:28;;;;;;;2.97;1.15;;;;;;;;;;2085877;28;20037;-65
2022/04/27 02:04:47;;;;;;;5.72;1.20;;;;;;;;;;2078457;28;20034;-66
2022/04/27 02:06:07;;;;;;;7.47;1.80;;;;;;;;;;2081967;28;20026;-67
2022/04/27 02:07:25;;;;;;;4.53;1.80;;;;;;;;;;2086599;28;20025;-66
2022/04/27 02:08:44;;;;;;;5.47;1.60;;;;;;;;;;2076339;28;20061;-66
2022/04/27 02:10:05;;;;;;;5.68;1.70;;;;;;;;;;2082180;28;20032;-68
2022/04/27 02:11:24;;;;;;;2.65;1.30;;;;;;;;;;2084843;28;20037;-67
2022/04/27 02:12:43;;;;;;;4.35;1.80;;;;;;;;;;2086344;28;20041;-68
2022/04/27 02:14:02;;;;;;;8.30;2.10;;;;;;;;;;2084487;28;20033;-67
2022/04/27 02:15:21;;;;;;;1.95;1.45;;;;;;;;;;2087394;28;20033;-65
2022/04/27 02:16:40;;;;;;;4.78;1.30;;;;;;;;;;2086696;28;20491;-66
2022/04/27 02:17:59;;;;;;;2.65;1.10;;;;;;;;;;2085187;28;20073;-67
2022/04/27 02:19:19;;;;;;;3.45;1.75;;;;;;;;;;2084675;28;20026;-68
2022/04/27 02:20:38;;;;;;;5.40;1.17;;;;;;;;;;2086258;28;20029;-66
2022/04/27 02:21:58;;;;;;;1.45;1.30;;;;;;;;;;2076479;28;20038;-66
2022/04/27 02:23:20;;;;;;;3.90;1.35;;;;;;;;;;2078342;28;20030;-67
2022/04/27 02:24:39;;;;;;;2.38;1.10;;;;;;;;;;2083397;28;20388;-67
2022/04/27 02:26:01;;;;;;;2.83;1.42;;;;;;;;;;2085937;28;20025;-66
2022/04/27 02:27:20;;;;;;;1.50;1.30;;;;;;;;;;2084958;28;20395;-66
2022/04/27 02:28:39;;;;;;;2.50;1.13;;;;;;;;;;2086770;28;20475;-67
2022/04/27 02:29:58;;;;;;;5.40;1.55;;;;;;;;;;2085153;28;20029;-66
2022/04/27 02:31:17;;;;;;;4.60;1.35;;;;;;;;;;2085957;28;20041;-68
2022/04/27 02:32:36;;;;;;;3.53;1.45;;;;;;;;;;2083873;28;20033;-66
2022/04/27 02:33:55;;;;;;;2.85;1.42;;;;;;;;;;2084776;28;20096;-66
2022/04/27 02:35:14;;;;;;;2.95;1.48;;;;;;;;;;2085841;28;20064;-66
2022/04/27 02:36:33;;;;;;;4.15;1.63;;;;;;;;;;2086000;28;20386;-68
2022/04/27 02:37:52;;;;;;;1.92;1.40;;;;;;;;;;2086916;28;20082;-67
2022/04/27 02:39:11;;;;;;;1.83;1.45;;;;;;;;;;2085499;28;20337;-67
2022/04/27 02:40:31;;;;;;;3.55;1.48;;;;;;;;;;2077897;28;20061;-68
2022/04/27 02:41:50;;;;;;;3.72;1.30;;;;;;;;;;2082562;28;20219;-68
2022/04/27 02:43:09;;;;;;;2.65;1.48;;;;;;;;;;2086042;28;20071;-67
2022/04/27 02:44:28;;;;;;;5.97;1.75;;;;;;;;;;2084775;28;20034;-68
2022/04/27 02:45:47;;;;;;;2.80;1.25;;;;;;;;;;2086288;28;20021;-67
2022/04/27 02:47:05;;;;;;;5.82;2.35;;;;;;;;;;2076087;28;20411;-68
2022/04/27 02:48:24;;;;;;;6.97;1.67;;;;;;;;;;2075577;28;20047;-67
2022/04/27 02:52:59;;;;;;;3.47;1.73;;;;;;;;;;2084766;28;20049;-67
2022/04/27 02:54:18;;;;;;;4.97;1.63;;;;;;;;;;2077082;28;20030;-69
2022/04/27 02:55:37;;;;;;;2.90;1.45;;;;;;;;;;2081159;28;20061;-68
2022/04/27 02:56:56;;;;;;;3.97;1.90;;;;;;;;;;2083973;28;20494;-68
2022/04/27 02:58:15;;;;;;;3.47;1.70;;;;;;;;;;2076387;28;20492;-68
2022/04/27 02:59:34;;;;;;;2.63;1.67;;;;;;;;;;2072646;28;20042;-68
2022/04/27 03:00:53;;;;;;;2.83;1.70;;;;;;;;;;2074447;28;20034;-68
2022/04/27 03:02:12;;;;;;;6.35;1.85;;;;;;;;;;2081855;28;20072;-68
2022/04/27 03:03:31;;;;;;;5.40;1.80;;;;;;;;;;2075541;28;20034;-68
2022/04/27 03:04:50;;;;;;;4.93;1.42;;;;;;;;;;2081563;28;20029;-68
2022/04/27 03:06:09;;;;;;;5.68;1.52;;;;;;;;;;2086318;28;20045;-68
2022/04/27 03:07:28;;;;;;;3.85;1.73;;;;;;;;;;2084508;28;20041;-68
2022/04/27 03:08:47;;;;;;;2.38;1.58;;;;;;;;;;2083109;28;20108;-66
2022/04/27 03:10:06;;;;;;;4.70;1.55;;;;;;;;;;2085819;28;20499;-67
2022/04/27 03:11:25;;;;;;;4.25;1.50;;;;;;;;;;2078384;28;20025;-66
2022/04/27 03:12:45;;;;;;;3.97;1.67;;;;;;;;;;2080687;28;20037;-67
2022/04/27 03:14:04;;;;;;;5.43;1.50;;;;;;;;;;2085002;28;20046;-67
2022/04/27 03:15:24;;;;;;;10.48;2.05;;;;;;;;;;2083723;28;20471;-66
2022/04/27 03:16:44;;;;;;;2.53;1.77;;;;;;;;;;2085207;28;20120;-66
2022/04/27 03:18:19;;;;;;;2.95;1.50;;;;;;;;;;2083921;28;20100;-67
2022/04/27 03:19:38;;;;;;;2.90;1.50;;;;;;;;;;2075555;28;20030;-69
2022/04/27 03:20:57;;;;;;;5.40;1.90;;;;;;;;;;2084182;28;20038;-69
2022/04/27 03:22:16;;;;;;;3.20;1.63;;;;;;;;;;2083683;28;20044;-66
2022/04/27 03:23:35;;;;;;;3.75;1.63;;;;;;;;;;2077908;28;20026;-65
2022/04/27 03:24:54;;;;;;;3.10;1.70;;;;;;;;;;2081584;28;20025;-66
2022/04/27 03:26:13;;;;;;;3.85;1.50;;;;;;;;;;2085602;28;20033;-66
2022/04/27 03:27:32;;;;;;;5.45;1.65;;;;;;;;;;2086336;28;20483;-67
2022/04/27 03:28:51;;;;;;;5.38;1.42;;;;;;;;;;2084080;28;20037;-66
2022/04/27 03:30:10;;;;;;;4.00;1.52;;;;;;;;;;2085429;28;20041;-66
2022/04/27 03:31:29;;;;;;;4.40;1.88;;;;;;;;;;2084577;28;20029;-67
2022/04/27 03:32:48;;;;;;;3.75;1.85;;;;;;;;;;2086835;28;20037;-67
2022/04/27 03:34:07;;;;;;;7.03;1.70;;;;;;;;;;2086840;28;20495;-66
2022/04/27 03:35:26;;;;;;;1.70;1.35;;;;;;;;;;2086183;28;20487;-66
2022/04/27 03:36:45;;;;;;;3.92;1.95;;;;;;;;;;2086075;28;20029;-66
2022/04/27 03:38:04;;;;;;;5.05;1.70;;;;;;;;;;2085962;28;20030;-67
2022/04/27 03:39:23;;;;;;;3.63;1.73;;;;;;;;;;2085487;28;20029;-66
2022/04/27 03:40:42;;;;;;;4.68;1.73;;;;;;;;;;2079285;28;20030;-65
2022/04/27 03:42:00;;;;;;;5.00;1.67;;;;;;;;;;2083029;28;20033;-66
2022/04/27 03:43:19;;;;;;;1.90;1.17;;;;;;;;;;2085415;28;20127;-65
2022/04/27 03:44:38;;;;;;;4.30;1.40;;;;;;;;;;2076490;28;20501;-65
2022/04/27 03:45:57;;;;;;;1.88;1.20;;;;;;;;;;2085078;28;20107;-66
2022/04/27 03:47:16;;;;;;;2.90;1.63;;;;;;;;;;2088327;28;20514;-66
2022/04/27 03:48:35;;;;;;;5.53;1.42;;;;;;;;;;2077586;28;20034;-66
2022/04/27 03:50:03;;;;;;;2.85;1.70;;;;;;;;;;2083341;28;20038;-66
2022/04/27 03:51:22;;;;;;;3.65;1.30;;;;;;;;;;2085641;28;20045;-66
2022/04/27 03:52:42;;;;;;;4.57;1.35;;;;;;;;;;2085848;28;20116;-67
2022/04/27 03:54:01;;;;;;;5.60;1.30;;;;;;;;;;2077598;28;20033;-68
2022/04/27 03:55:19;;;;;;;3.85;1.42;;;;;;;;;;2082904;28;20037;-68
2022/04/27 03:56:38;;;;;;;4.18;1.30;;;;;;;;;;2086428;28;20100;-69
2022/04/27 03:57:57;;;;;;;2.13;1.67;;;;;;;;;;2088211;28;20096;-67
2022/04/27 03:59:17;;;;;;;9.50;2.40;;;;;;;;;;2086650;28;20041;-67
2022/04/27 04:00:36;;;;;;;6.68;1.88;;;;;;;;;;2085215;28;20480;-68
2022/04/27 04:01:55;;;;;;;8.27;1.80;;;;;;;;;;2085161;28;20025;-67
2022/04/27 04:03:14;;;;;;;6.18;1.77;;;;;;;;;;2087814;28;20037;-67
2022/04/27 04:04:33;;;;;;;6.63;1.70;;;;;;;;;;2087388;28;20109;-67
2022/04/27 04:05:52;;;;;;;3.38;1.48;;;;;;;;;;2086190;28;20049;-66
2022/04/27 04:07:12;;;;;;;3.65;1.90;;;;;;;;;;2084341;28;20037;-67
2022/04/27 04:08:31;;;;;;;6.57;1.58;;;;;;;;;;2088284;28;20048;-68
2022/04/27 04:09:50;;;;;;;2.20;1.25;;;;;;;;;;2087995;28;20029;-67
2022/04/27 04:11:11;;;;;;;7.43;1.85;;;;;;;;;;2085909;28;20025;-67
2022/04/27 04:12:30;;;;;;;6.13;1.45;;;;;;;;;;2083997;28;20078;-66
2022/04/27 04:13:49;;;;;;;5.50;2.05;;;;;;;;;;2085752;28;20025;-66
2022/04/27 04:15:08;;;;;;;5.25;1.20;;;;;;;;;;2087436;28;20048;-69
2022/04/27 04:16:28;;;;;;;10.63;1.80;;;;;;;;;;2085920;28;20021;-67
2022/04/27 04:17:47;;;;;;;4.43;1.73;;;;;;;;;;2087080;28;20021;-67
2022/04/27 04:19:05;;;;;;;4.22;1.52;;;;;;;;;;2084917;28;20481;-68
2022/04/27 04:20:24;;;;;;;3.47;1.48;;;;;;;;;;2077008;28;20037;-68
2022/04/27 04:21:43;;;;;;;2.63;1.80;;;;;;;;;;2083722;28;20025;-67
2022/04/27 04:23:02;;;;;;;4.40;1.40;;;;;;;;;;2086670;28;20025;-67
2022/04/27 04:24:21;;;;;;;5.63;1.48;;;;;;;;;;2088016;28;20088;-69
2022/04/27 04:28:56;;;;;;;2.90;1.30;;;;;;;;;;2087900;28;20033;-68
2022/04/27 04:30:15;;;;;;;4.55;1.83;;;;;;;;;;2087136;28;20026;-67
2022/04/27 04:31:34;;;;;;;4.93;1.95;;;;;;;;;;2087637;28;20033;-67
2022/04/27 04:32:53;;;;;;;3.92;1.42;;;;;;;;;;2086042;28;20059;-67
2022/04/27 04:34:12;;;;;;;3.92;1.30;;;;;;;;;;2087733;28;20026;-68
2022/04/27 04:35:30;;;;;;;2.45;1.30;;;;;;;;;;2083891;28;20033;-68
2022/04/27 04:36:50;;;;;;;4.60;1.30;;;;;;;;;;2085278;28;20013;-70
2022/04/27 04:38:09;;;;;;;6.63;1.70;;;;;;;;;;2087400;28;20108;-68
2022/04/27 04:39:27;;;;;;;2.60;1.33;;;;;;;;;;2086838;28;20025;-67
2022/04/27 04:40:47;;;;;;;7.45;1.60;;;;;;;;;;2080674;28;20061;-68
2022/04/27 04:42:08;;;;;;;4.10;1.50;;;;;;;;;;2081163;28;20029;-68
2022/04/27 04:43:29;;;;;;;8.35;1.60;;;;;;;;;;2086227;28;20053;-68
2022/04/27 04:44:48;;;;;;;4.72;1.42;;;;;;;;;;2078086;28;20034;-68
2022/04/27 04:46:08;;;;;;;4.68;1.30;;;;;;;;;;2083588;28;20041;-68
2022/04/27 04:47:28;;;;;;;2.70;1.58;;;;;;;;;;2076107;28;20025;-68
2022/04/27 04:48:52;;;;;;;5.63;1.63;;;;;;;;;;2081532;28;20041;-69
2022/04/27 04:50:12;;;;;;;7.18;1.52;;;;;;;;;;2085853;28;20033;-67
2022/04/27 04:51:31;;;;;;;3.53;1.30;;;;;;;;;;2076007;28;20029;-67
2022/04/27 04:52:49;;;;;;;8.75;2.28;;;;;;;;;;2083244;28;20045;-68
2022/04/27 04:54:08;;;;;;;6.28;1.77;;;;;;;;;;2084793;28;20026;-68
2022/04/27 04:55:27;;;;;;;2.58;1.88;;;;;;;;;;2086654;28;20072;-68
2022/04/27 04:56:46;;;;;;;8.23;1.92;;;;;;;;;;2083945;28;20112;-69
2022/04/27 04:58:05;;;;;;;6.63;1.20;;;;;;;;;;2079060;28;20057;-67
2022/04/27 04:59:23;;;;;;;5.75;1.42;;;;;;;;;;2077153;28;20053;-70
2022/04/27 05:00:43;;;;;;;1.90;1.40;;;;;;;;;;2078780;28;20029;-69
2022/04/27 05:02:03;;;;;;;4.72;1.80;;;;;;;;;;2073156;28;20030;-68
2022/04/27 05:03:22;;;;;;;4.90;1.50;;;;;;;;;;2080459;28;20021;-68
2022/04/27 05:04:41;;;;;;;4.85;1.70;;;;;;;;;;2084484;28;20119;-69
2022/04/27 05:06:00;;;;;;;13.82;2.53;;;;;;;;;;2085486;28;20033;-69
2022/04/27 05:07:19;;;;;;;5.70;1.88;;;;;;;;;;2084914;28;20038;-69
2022/04/27 05:08:38;;;;;;;4.25;1.48;;;;;;;;;;2088403;28;20387;-68
2022/04/27 05:09:57;;;;;;;6.95;1.80;;;;;;;;;;2077563;28;20515;-68
2022/04/27 05:11:16;;;;;;;7.63;1.88;;;;;;;;;;2073539;28;20427;-68
2022/04/27 05:12:35;;;;;;;5.15;1.20;;;;;;;;;;2075074;28;20495;-69
2022/04/27 05:13:54;;;;;;;6.65;1.63;;;;;;;;;;2073664;28;20042;-67
2022/04/27 05:15:16;;;;;;;6.10;1.30;;;;;;;;;;2081005;28;20033;-69
2022/04/27 05:16:36;;;;;;;4.43;1.30;;;;;;;;;;2085318;28;20033;-68
2022/04/27 05:18:01;;;;;;;3.72;0.95;;;;;;;;;;2085907;28;20053;-67
2022/04/27 05:19:22;;;;;;;5.38;1.92;;;;;;;;;;2084677;28;20440;-67
2022/04/27 05:20:41;;;;;;;2.65;1.35;;;;;;;;;;2084253;28;20029;-67
2022/04/27 05:22:00;;;;;;;3.20;1.23;;;;;;;;;;2084498;28;20041;-68
2022/04/27 05:23:19;;;;;;;4.30;1.65;;;;;;;;;;2085807;28;20049;-68
2022/04/27 05:24:38;;;;;;;7.43;1.70;;;;;;;;;;2078555;28;20034;-68
2022/04/27 05:25:57;;;;;;;6.40;2.20;;;;;;;;;;2082063;28;20028;-68
2022/04/27 05:27:16;;;;;;;6.57;1.58;;;;;;;;;;2087825;28;20021;-68
2022/04/27 05:31:55;;;;;;;2.88;1.10;;;;;;;;;;2086297;28;20025;-68
2022/04/27 05:33:17;;;;;;;7.82;1.70;;;;;;;;;;2086837;28;20025;-68
2022/04/27 05:34:37;;;;;;;7.57;1.80;;;;;;;;;;2086465;28;20475;-68
2022/04/27 05:35:56;;;;;;;5.32;2.55;;;;;;;;;;2084851;28;20483;-67
2022/04/27 05:37:15;;;;;;;6.00;1.63;;;;;;;;;;2086910;28;20471;-67
2022/04/27 05:38:34;;;;;;;9.48;1.70;;;;;;;;;;2084558;28;20120;-67
2022/04/27 05:39:53;;;;;;;3.42;1.10;;;;;;;;;;2077043;28;20029;-67
2022/04/27 05:41:12;;;;;;;9.25;1.33;;;;;;;;;;2081329;28;20396;-68
2022/04/27 05:42:31;;;;;;;23.85;4.97;;;;;;;;;;2086162;28;20037;-68
2022/04/27 05:43:50;;;;;;;16.17;3.65;;;;;;;;;;2085258;28;20029;-67
2022/04/27 05:45:09;;;;;;;10.15;2.72;;;;;;;;;;2085440;28;20032;-68
2022/04/27 05:46:28;;;;;;;8.05;2.20;;;;;;;;;;2075476;28;20045;-68
2022/04/27 05:47:47;;;;;;;4.07;1.52;;;;;;;;;;2082601;28;20112;-67
2022/04/27 05:49:06;;;;;;;6.07;2.00;;;;;;;;;;2084099;28;20036;-67
2022/04/27 05:50:25;;;;;;;2.00;0.77;;;;;;;;;;2085871;28;20025;-70
2022/04/27 05:51:44;;;;;;;4.00;1.05;;;;;;;;;;2084606;28;20037;-70
2022/04/27 05:53:04;;;;;;;6.28;1.25;;;;;;;;;;2084659;28;20033;-71
2022/04/27 05:54:23;;;;;;;5.40;1.20;;;;;;;;;;2085786;28;20097;-70
2022/04/27 05:55:43;;;;;;;3.75;0.90;;;;;;;;;;2076795;28;20105;-68
2022/04/27 05:57:02;;;;;;;8.20;1.15;;;;;;;;;;2081281;28;20041;-69
2022/04/27 05:58:21;;;;;;;3.67;0.80;;;;;;;;;;2084601;28;20677;-69
2022/04/27 05:59:42;;;;;;;2.53;0.88;;;;;;;;;;2083264;28;20025;-68
2022/04/27 06:01:01;;;;;;;13.23;1.58;;;;;;;;;;2085951;28;20033;-70
2022/04/27 06:02:20;;;;;;;6.35;0.90;;;;;;;;;;2079819;28;20116;-70
2022/04/27 06:03:38;;;;;;;4.03;1.08;;;;;;;;;;2083098;28;20029;-70
2022/04/27 06:04:57;;;;;;;3.22;1.27;;;;;;;;;;2085286;28;20041;-70
2022/04/27 06:06:16;;;;;;;7.78;1.27;;;;;;;;;;2076399;28;20065;-70
2022/04/27 06:07:35;;;;;;;1.92;1.10;;;;;;;;;;2081680;28;20116;-70
2022/04/27 06:08:54;;;;;;;6.07;0.88;;;;;;;;;;2085717;28;20033;-70
2022/04/27 06:10:13;;;;;;;3.10;0.90;;;;;;;;;;2078116;28;20034;-71
2022/04/27 06:11:32;;;;;;;2.92;0.80;;;;;;;;;;2081208;28;20045;-70
2022/04/27 06:12:52;;;;;;;4.15;1.50;;;;;;;;;;2085718;28;20036;-70
2022/04/27 06:14:11;;;;;;;3.42;1.20;;;;;;;;;;2085423;28;20029;-70
2022/04/27 06:15:30;;;;;;;5.15;0.90;;;;;;;;;;2085887;28;20391;-69
2022/04/27 06:16:49;;;;;;;3.63;0.55;;;;;;;;;;2085282;28;20120;-70
2022/04/27 06:18:08;;;;;;;4.03;0.85;;;;;;;;;;2085266;28;20627;-71
2022/04/27 06:19:28;;;;;;;2.75;0.93;;;;;;;;;;2084588;28;20484;-72
2022/04/27 06:20:47;;;;;;;9.45;1.73;;;;;;;;;;2084795;28;20109;-73
2022/04/27 06:22:06;;;;;;;7.35;0.85;;;;;;;;;;2085913;28;20040;-70
2022/04/27 06:23:25;;;;;;;5.72;0.90;;;;;;;;;;2075961;28;20583;-70
2022/04/27 06:24:44;;;;;;;5.63;1.10;;;;;;;;;;2073739;28;20069;-71
2022/04/27 06:26:03;;;;;;;8.02;0.95;;;;;;;;;;2083612;28;20499;-71
2022/04/27 06:27:22;;;;;;;3.38;1.15;;;;;;;;;;2087006;28;20033;-71
2022/04/27 06:28:41;;;;;;;1.00;0.70;;;;;;;;;;2084663;28;20025;-71
2022/04/27 06:30:01;;;;;;;2.92;1.60;;;;;;;;;;2085688;28;20029;-71
2022/04/27 06:31:20;;;;;;;4.55;1.25;;;;;;;;;;2076529;28;20508;-71
2022/04/27 06:32:39;;;;;;;1.63;0.73;;;;;;;;;;2071006;28;20041;-70
2022/04/27 06:33:58;;;;;;;3.00;1.13;;;;;;;;;;2083014;28;20203;-69
2022/04/27 06:35:18;;;;;;;3.90;1.55;;;;;;;;;;2078859;28;20034;-70
2022/04/27 06:36:38;;;;;;;2.40;0.88;;;;;;;;;;2083839;28;20034;-71
2022/04/27 06:37:58;;;;;;;1.75;0.88;;;;;;;;;;2086007;28;20112;-71
2022/04/27 06:39:18;;;;;;;2.72;0.60;;;;;;;;;;2077020;28;20625;-70
2022/04/27 06:40:36;;;;;;;2.47;0.80;;;;;;;;;;2081180;28;20033;-70
2022/04/27 06:41:55;;;;;;;1.88;0.90;;;;;;;;;;2086003;28;20022;-73
2022/04/27 06:43:14;;;;;;;4.90;1.08;;;;;;;;;;2085075;28;20033;-69
2022/04/27 06:44:34;;;;;;;6.13;1.40;;;;;;;;;;2087470;28;20025;-70
2022/04/27 06:45:53;;;;;;;5.25;1.13;;;;;;;;;;2074978;28;20037;-71
2022/04/27 06:47:12;;;;;;;3.72;1.17;;;;;;;;;;2075478;28;20026;-70
2022/04/27 06:48:32;;;;;;;1.70;0.90;;;;;;;;;;2079922;28;20495;-69
2022/04/27 06:49:51;;;;;;;7.00;1.00;;;;;;;;;;2084696;28;20468;-69
2022/04/27 06:51:10;;;;;;;5.25;0.95;;;;;;;;;;2085395;28;20033;-69
2022/04/27 06:52:29;;;;;;;2.22;0.70;;;;;;;;;;2085166;28;20116;-70
2022/04/27 06:53:49;;;;;;;4.72;0.90;;;;;;;;;;2084234;28;20396;-70
2022/04/27 06:55:08;;;;;;;6.10;1.00;;;;;;;;;;2076537;28;20026;-70
2022/04/27 06:56:27;;;;;;;2.22;0.80;;;;;;;;;;2082280;28;20029;-70
2022/04/27 06:57:46;;;;;;;2.70;0.93;;;;;;;;;;2087005;28;20029;-70
2022/04/27 06:59:05;;;;;;;4.18;0.98;;;;;;;;;;2085383;28;20029;-70
2022/04/27 07:00:25;;;;;;;6.55;0.80;;;;;;;;;;2084222;28;20025;-70
2022/04/27 07:01:44;;;;;;;2.20;0.57;;;;;;;;;;2083893;28;20037;-73
2022/04/27 07:03:06;;;;;;;2.28;1.13;;;;;;;;;;2077371;28;20527;-70
2022/04/27 07:04:25;;;;;;;3.17;0.82;;;;;;;;;;2081924;28;20037;-70
2022/04/27 07:05:44;;;;;;;1.25;0.50;;;;;;;;;;2087635;28;20100;-70
2022/04/27 07:07:03;;;;;;;5.13;1.23;;;;;;;;;;2086118;28;20446;-70
2022/04/27 07:08:23;;;;;;;3.42;0.80;;;;;;;;;;2082740;28;20045;-70
2022/04/27 07:09:42;;;;;;;4.18;0.52;;;;;;;;;;2083616;28;20053;-70
2022/04/27 07:11:00;;;;;;;2.33;0.60;;;;;;;;;;2086859;28;20060;-70
2022/04/27 07:12:20;;;;;;;2.88;0.90;;;;;;;;;;2085118;28;20026;-70
2022/04/27 07:13:38;;;;;;;1.80;0.90;;;;;;;;;;2084772;28;20484;-70
2022/04/27 07:14:58;;;;;;;2.40;0.70;;;;;;;;;;2084655;28;20022;-70
2022/04/27 07:16:18;;;;;;;1.02;0.40;;;;;;;;;;2076718;28;20145;-69
2022/04/27 07:17:37;;;;;;;1.52;0.60;;;;;;;;;;2073930;28;20030;-70
2022/04/27 07:18:55;;;;;;;4.82;0.75;;;;;;;;;;2076172;28;20025;-70
2022/04/27 07:20:14;;;;;;;11.20;1.45;;;;;;;;;;2081728;28;20406;-70
2022/04/27 07:21:33;;;;;;;2.08;0.55;;;;;;;;;;2087069;28;20419;-69
2022/04/27 07:22:52;;;;;;;2.88;1.00;;;;;;;;;;2085328;28;20037;-69
2022/04/27 07:24:11;;;;;;;2.03;0.63;;;;;;;;;;2085754;28;20033;-70
2022/04/27 07:25:30;;;;;;;5.65;0.82;;;;;;;;;;2077051;28;20041;-69
2022/04/27 07:26:49;;;;;;;1.92;0.63;;;;;;;;;;2079883;28;20041;-70
2022/04/27 07:28:08;;;;;;;6.30;0.93;;;;;;;;;;2075787;28;20116;-69
2022/04/27 07:29:28;;;;;;;2.95;0.73;;;;;;;;;;2081136;28;20363;-70
2022/04/27 07:30:46;;;;;;;2.05;0.70;;;;;;;;;;2084849;28;20030;-70
2022/04/27 07:32:05;;;;;;;0.63;0.55;;;;;;;;;;2076991;28;20038;-70
2022/04/27 07:33:25;;;;;;;1.48;0.60;;;;;;;;;;2074234;28;20029;-70
2022/04/27 07:34:44;;;;;;;2.25;0.70;;;;;;;;;;2074450;28;20029;-70
2022/04/27 07:36:04;;;;;;;1.48;0.40;;;;;;;;;;2083449;28;20022;-69
2022/04/27 07:37:24;;;;;;;1.13;0.50;;;;;;;;;;2085629;28;20021;-70
2022/04/27 07:38:43;;;;;;;1.92;0.65;;;;;;;;;;2084395;28;20021;-69
2022/04/27 07:40:01;;;;;;;4.57;1.05;;;;;;;;;;2086134;28;20491;-70
2022/04/27 07:41:20;;;;;;;5.32;0.80;;;;;;;;;;2083273;28;20080;-69
2022/04/27 07:42:39;;;;;;;7.57;1.02;;;;;;;;;;2084679;28;20045;-70
2022/04/27 07:43:58;;;;;;;4.65;0.95;;;;;;;;;;2077315;28;20432;-70
2022/04/27 07:45:17;;;;;;;1.75;0.77;;;;;;;;;;2081954;28;20040;-70
2022/04/27 07:46:36;;;;;;;5.22;0.95;;;;;;;;;;2084587;28;20056;-70
2022/04/27 07:47:55;;;;;;;8.30;1.10;;;;;;;;;;2085430;28;20029;-69
2022/04/27 07:49:20;;;;;;;3.10;0.85;;;;;;;;;;2074554;28;20042;-71
2022/04/27 07:50:40;;;;;;;13.73;1.65;;;;;;;;;;2074006;28;20034;-70
2022/04/27 07:51:59;;;;;;;4.85;1.30;;;;;;;;;;2081719;28;20029;-69
2022/04/27 07:53:18;;;;;;;5.38;1.50;;;;;;;;;;2076113;28;20395;-70
2022/04/27 07:54:37;;;;;;;6.07;1.05;;;;;;;;;;2081916;28;20029;-69
2022/04/27 07:55:56;;;;;;;3.85;0.93;;;;;;;;;;2086835;28;20064;-70
2022/04/27 07:57:15;;;;;;;6.65;0.95;;;;;;;;;;2084839;28;20025;-70
2022/04/27 07:58:34;;;;;;;4.47;0.95;;;;;;;;;;2086114;28;20025;-69
2022/04/27 07:59:53;;;;;;;6.13;0.85;;;;;;;;;;2084619;28;20033;-70
2022/04/27 08:01:12;;;;;;;6.97;0.65;;;;;;;;;;2085270;28;20491;-70
2022/04/27 08:02:31;;;;;;;4.38;0.85;;;;;;;;;;2085811;28;20037;-69
2022/04/27 08:03:50;;;;;;;9.68;0.90;;;;;;;;;;2083234;28;20029;-69
2022/04/27 08:05:10;;;;;;;1.67;0.73;;;;;;;;;;2086469;28;20033;-71
2022/04/27 08:06:29;;;;;;;5.60;0.85;;;;;;;;;;2074911;28;20038;-69